createdAt,value
2023-02-28T00:00:23.859Z,4.10
2023-02-28T00:02:26.684Z,4.75
2023-02-28T00:04:29.492Z,3.47
2023-02-28T00:06:32.332Z,3.67
2023-02-28T00:08:35.540Z,3.53
2023-02-28T00:10:40.502Z,4.28
2023-02-28T00:12:43.406Z,3.35
2023-02-28T00:14:46.184Z,2.67
2023-02-28T00:16:48.992Z,3.25
2023-02-28T00:18:52.042Z,3.63
2023-02-28T00:20:54.856Z,3.60
2023-02-28T00:22:58.034Z,3.63
2023-02-28T00:25:00.766Z,4.43
2023-02-28T00:27:04.969Z,3.35
2023-02-28T00:29:07.737Z,3.95
2023-02-28T00:31:10.524Z,2.55
2023-02-28T00:33:13.531Z,2.67
2023-02-28T00:35:16.823Z,3.42
2023-02-28T00:37:19.660Z,2.85
2023-02-28T00:39:22.800Z,3.83
2023-02-28T00:41:25.553Z,3.88
2023-02-28T00:43:29.680Z,2.88
2023-02-28T00:45:32.615Z,3.05
2023-02-28T00:47:35.452Z,4.15
2023-02-28T00:49:38.311Z,3.78
2023-02-28T00:51:41.021Z,4.18
2023-02-28T00:53:43.700Z,3.15
2023-02-28T00:55:46.415Z,3.60
2023-02-28T00:57:49.133Z,3.50
2023-02-28T00:59:55.137Z,3.60
2023-02-28T01:01:57.865Z,3.83
2023-02-28T01:04:00.616Z,3.17
2023-02-28T01:06:03.369Z,7.03
2023-02-28T01:08:07.268Z,3.17
2023-02-28T01:10:11.604Z,3.17
2023-02-28T01:12:14.362Z,2.55
2023-02-28T01:14:18.949Z,2.95
2023-02-28T01:16:23.954Z,4.45
2023-02-28T01:18:27.046Z,3.35
2023-02-28T01:20:29.805Z,2.83
2023-02-28T01:22:32.528Z,3.53
2023-02-28T01:24:35.330Z,4.47
2023-02-28T01:26:38.108Z,3.00
2023-02-28T01:28:43.822Z,3.17
2023-02-28T01:30:50.119Z,3.92
2023-02-28T01:32:54.491Z,3.30
2023-02-28T01:34:57.243Z,3.78
2023-02-28T01:37:00.510Z,3.25
2023-02-28T01:39:03.227Z,4.20
2023-02-28T01:41:06.737Z,5.30
2023-02-28T01:43:22.272Z,6.53
2023-02-28T01:45:29.202Z,4.22
2023-02-28T01:47:35.068Z,3.35
2023-02-28T01:49:39.424Z,3.25
2023-02-28T01:51:51.473Z,4.65
2023-02-28T01:53:58.487Z,3.50
2023-02-28T01:56:02.102Z,3.95
2023-02-28T01:58:08.154Z,3.58
2023-02-28T02:00:15.329Z,3.65
2023-02-28T02:02:25.340Z,3.55
2023-02-28T02:04:34.386Z,3.00
2023-02-28T02:06:42.409Z,3.03
2023-02-28T02:08:46.601Z,3.60
2023-02-28T02:10:54.308Z,3.78
2023-02-28T02:13:13.767Z,3.38
2023-02-28T02:15:19.295Z,4.13
2023-02-28T02:17:30.328Z,4.03
2023-02-28T02:19:55.387Z,5.50
2023-02-28T02:22:23.831Z,3.50
2023-02-28T02:24:49.980Z,3.53
2023-02-28T02:27:22.331Z,3.40
2023-02-28T02:29:56.337Z,5.25
2023-02-28T02:32:25.052Z,4.65
2023-02-28T02:34:42.390Z,6.28
2023-02-28T02:36:53.087Z,4.03
2023-02-28T02:39:04.016Z,4.95
2023-02-28T02:41:14.874Z,3.83
2023-02-28T02:43:22.561Z,5.55
2023-02-28T02:45:29.276Z,4.22
2023-02-28T02:47:34.209Z,3.92
2023-02-28T02:49:43.929Z,4.75
2023-02-28T02:51:49.581Z,4.85
2023-02-28T02:53:57.529Z,3.28
2023-02-28T02:56:03.620Z,3.88
2023-02-28T02:58:12.816Z,3.90
2023-02-28T03:00:19.632Z,4.38
2023-02-28T03:02:26.185Z,3.75
2023-02-28T03:04:35.051Z,5.38
2023-02-28T03:06:39.268Z,3.92
2023-02-28T03:08:41.998Z,14.50
2023-02-28T03:10:47.632Z,4.13
2023-02-28T03:13:04.288Z,4.75
2023-02-28T03:15:20.391Z,4.07
2023-02-28T03:17:40.389Z,3.90
2023-02-28T03:19:53.523Z,5.20
2023-02-28T03:22:15.679Z,3.50
2023-02-28T03:24:25.275Z,5.40
2023-02-28T03:26:29.554Z,5.88
2023-02-28T03:28:41.197Z,7.50
2023-02-28T03:30:54.798Z,4.68
2023-02-28T03:33:00.474Z,4.78
2023-02-28T03:35:09.489Z,3.85
2023-02-28T03:37:20.247Z,3.60
2023-02-28T03:39:26.377Z,4.32
2023-02-28T03:41:35.019Z,5.28
2023-02-28T03:43:42.947Z,3.97
2023-02-28T03:45:48.354Z,5.45
2023-02-28T03:47:55.571Z,4.68
2023-02-28T03:50:03.539Z,6.55
2023-02-28T03:52:09.347Z,4.40
2023-02-28T03:54:17.796Z,5.43
2023-02-28T03:56:24.641Z,5.40
2023-02-28T03:58:32.815Z,5.45
2023-02-28T04:00:40.171Z,5.95
2023-02-28T04:02:43.072Z,6.03
2023-02-28T04:04:46.126Z,5.25
2023-02-28T04:06:52.354Z,5.70
2023-02-28T04:08:55.201Z,6.80
2023-02-28T04:11:04.110Z,5.90
2023-02-28T04:13:06.835Z,4.22
2023-02-28T04:15:11.490Z,4.75
2023-02-28T04:17:14.265Z,7.00
2023-02-28T04:19:17.336Z,4.68
2023-02-28T04:21:22.071Z,4.55
2023-02-28T04:23:24.854Z,4.75
2023-02-28T04:25:27.561Z,5.20
2023-02-28T04:27:32.851Z,5.40
2023-02-28T04:29:35.661Z,5.47
2023-02-28T04:31:38.899Z,7.07
2023-02-28T04:33:41.793Z,5.03
2023-02-28T04:35:44.525Z,6.22
2023-02-28T04:37:47.273Z,6.75
2023-02-28T04:39:50.022Z,5.53
2023-02-28T04:41:52.867Z,5.68
2023-02-28T04:43:57.619Z,5.22
2023-02-28T04:46:04.067Z,6.28
2023-02-28T04:48:06.887Z,4.85
2023-02-28T04:50:10.863Z,6.68
2023-02-28T04:52:14.237Z,5.00
2023-02-28T04:54:17.064Z,5.82
2023-02-28T04:56:20.360Z,7.40
2023-02-28T04:58:24.003Z,6.03
2023-02-28T05:00:28.293Z,4.60
2023-02-28T05:02:31.121Z,5.63
2023-02-28T05:04:35.154Z,5.35
2023-02-28T05:06:38.010Z,7.32
2023-02-28T05:08:41.311Z,8.27
2023-02-28T05:10:44.071Z,5.63
2023-02-28T05:12:46.866Z,4.85
2023-02-28T05:14:49.593Z,7.32
2023-02-28T05:16:53.807Z,6.03
2023-02-28T05:18:56.616Z,5.05
2023-02-28T05:20:59.545Z,7.85
2023-02-28T05:23:04.401Z,5.75
2023-02-28T05:25:08.724Z,5.57
2023-02-28T05:27:11.911Z,6.32
2023-02-28T05:29:14.709Z,5.45
2023-02-28T05:31:17.881Z,6.88
2023-02-28T05:33:21.958Z,6.68
2023-02-28T05:35:25.116Z,8.18
2023-02-28T05:37:27.968Z,6.00
2023-02-28T05:39:30.695Z,5.70
2023-02-28T05:41:33.479Z,7.03
2023-02-28T05:43:36.572Z,10.05
2023-02-28T05:45:39.299Z,7.95
2023-02-28T05:47:42.027Z,6.78
2023-02-28T05:49:46.057Z,5.93
2023-02-28T05:51:48.737Z,5.90
2023-02-28T05:53:51.458Z,6.82
2023-02-28T05:55:54.222Z,6.70
2023-02-28T05:57:57.368Z,6.40
2023-02-28T06:00:00.125Z,7.60
2023-02-28T06:02:02.885Z,7.65
2023-02-28T06:04:08.323Z,6.95
2023-02-28T06:06:12.918Z,6.80
2023-02-28T06:08:15.664Z,7.15
2023-02-28T06:10:18.489Z,7.30
2023-02-28T06:12:21.260Z,7.78
2023-02-28T06:14:24.011Z,7.05
2023-02-28T06:16:27.191Z,8.35
2023-02-28T06:18:30.072Z,7.22
2023-02-28T06:20:32.844Z,6.70
2023-02-28T06:22:37.495Z,6.47
2023-02-28T06:24:40.208Z,8.85
2023-02-28T06:26:42.950Z,8.40
2023-02-28T06:28:45.694Z,7.05
2023-02-28T06:30:48.472Z,8.57
2023-02-28T06:32:51.283Z,8.77
2023-02-28T06:34:54.291Z,6.70
2023-02-28T06:36:57.027Z,7.03
2023-02-28T06:39:01.145Z,8.32
2023-02-28T06:41:05.227Z,8.82
2023-02-28T06:43:08.000Z,7.65
2023-02-28T06:45:11.777Z,8.07
2023-02-28T06:47:14.530Z,7.80
2023-02-28T06:49:17.574Z,7.75
2023-02-28T06:51:23.216Z,8.75
2023-02-28T06:53:26.142Z,8.13
2023-02-28T06:55:30.811Z,8.80
2023-02-28T06:57:35.279Z,7.25
2023-02-28T06:59:38.158Z,8.02
2023-02-28T07:01:41.101Z,7.30
2023-02-28T07:03:43.964Z,7.63
2023-02-28T07:05:47.206Z,6.85
2023-02-28T07:07:49.971Z,7.93
2023-02-28T07:09:52.724Z,9.77
2023-02-28T07:11:56.780Z,8.38
2023-02-28T07:14:00.139Z,8.80
2023-02-28T07:16:04.586Z,9.30
2023-02-28T07:18:07.355Z,8.43
2023-02-28T07:20:11.137Z,7.63
2023-02-28T07:22:15.875Z,7.65
2023-02-28T07:24:19.021Z,7.78
2023-02-28T07:26:22.442Z,7.70
2023-02-28T07:28:26.917Z,9.02
2023-02-28T07:30:29.817Z,7.70
2023-02-28T07:32:32.539Z,8.80
2023-02-28T07:34:35.290Z,8.02
2023-02-28T07:36:37.992Z,9.80
2023-02-28T07:38:40.718Z,8.20
2023-02-28T07:40:43.538Z,6.75
2023-02-28T07:42:46.604Z,8.73
2023-02-28T07:44:54.596Z,8.77
2023-02-28T07:46:57.364Z,10.20
2023-02-28T07:49:00.959Z,8.98
2023-02-28T07:51:04.512Z,8.75
2023-02-28T07:53:07.249Z,8.35
2023-02-28T07:55:11.322Z,9.27
2023-02-28T07:57:14.128Z,8.93
2023-02-28T07:59:16.878Z,8.95
2023-02-28T08:01:21.386Z,7.75
2023-02-28T08:03:25.168Z,9.30
2023-02-28T08:05:27.925Z,11.52
2023-02-28T08:07:30.670Z,8.10
2023-02-28T08:09:33.544Z,7.93
2023-02-28T08:11:37.234Z,8.32
2023-02-28T08:13:40.013Z,10.85
2023-02-28T08:15:43.151Z,7.95
2023-02-28T08:17:47.293Z,8.82
2023-02-28T08:19:51.221Z,9.63
2023-02-28T08:21:53.975Z,9.90
2023-02-28T08:23:57.784Z,10.07
2023-02-28T08:26:00.524Z,11.00
2023-02-28T08:28:03.336Z,10.40
2023-02-28T08:30:07.139Z,8.48
2023-02-28T08:32:23.561Z,10.13
2023-02-28T08:34:32.863Z,9.05
2023-02-28T08:36:35.624Z,11.00
2023-02-28T08:38:39.342Z,8.93
2023-02-28T08:40:42.393Z,9.85
2023-02-28T08:42:45.078Z,10.30
2023-02-28T08:44:47.911Z,9.32
2023-02-28T08:46:50.642Z,11.48
2023-02-28T08:48:54.558Z,10.43
2023-02-28T08:51:07.117Z,8.20
2023-02-28T08:53:10.660Z,10.55
2023-02-28T08:55:13.393Z,11.02
2023-02-28T08:57:16.177Z,9.27
2023-02-28T08:59:18.920Z,9.73
2023-02-28T09:01:24.039Z,8.98
2023-02-28T09:03:27.948Z,10.85
2023-02-28T09:05:30.920Z,11.65
2023-02-28T09:07:34.980Z,10.55
2023-02-28T09:09:37.719Z,10.45
2023-02-28T09:11:40.452Z,15.10
2023-02-28T09:13:43.392Z,11.98
2023-02-28T09:15:46.474Z,16.05
2023-02-28T09:17:49.219Z,17.88
2023-02-28T09:19:51.932Z,10.65
2023-02-28T09:21:54.666Z,10.40
2023-02-28T09:23:58.887Z,10.43
2023-02-28T09:26:01.694Z,12.50
2023-02-28T09:28:05.273Z,11.00
2023-02-28T09:30:09.899Z,10.75
2023-02-28T09:32:12.651Z,10.23
2023-02-28T09:34:15.423Z,9.77
2023-02-28T09:36:18.272Z,13.23
2023-02-28T09:38:21.038Z,9.80
2023-02-28T09:40:27.676Z,10.27
2023-02-28T09:42:34.385Z,11.35
2023-02-28T09:44:41.558Z,11.25
2023-02-28T09:46:48.089Z,11.30
2023-02-28T09:48:52.536Z,10.95
2023-02-28T09:51:02.957Z,9.38
2023-02-28T09:53:13.187Z,14.13
2023-02-28T09:55:23.935Z,11.27
2023-02-28T09:57:35.898Z,10.43
2023-02-28T10:00:00.709Z,14.65
2023-02-28T10:02:13.142Z,13.55
2023-02-28T10:04:31.326Z,12.43
2023-02-28T10:06:38.791Z,11.23
2023-02-28T10:08:48.157Z,11.73
2023-02-28T10:10:54.353Z,10.52
2023-02-28T10:13:01.073Z,9.80
2023-02-28T10:15:05.689Z,10.18
2023-02-28T10:17:14.548Z,12.98
2023-02-28T10:19:22.631Z,13.88
2023-02-28T10:21:29.944Z,10.48
2023-02-28T10:23:37.565Z,11.15
2023-02-28T10:25:41.687Z,11.93
2023-02-28T10:27:45.045Z,10.90
2023-02-28T10:29:51.415Z,10.32
2023-02-28T10:31:54.173Z,10.65
2023-02-28T10:33:57.215Z,12.23
2023-02-28T10:36:00.331Z,9.98
2023-02-28T10:38:16.634Z,9.30
2023-02-28T10:40:33.696Z,13.30
2023-02-28T10:42:39.884Z,9.70
2023-02-28T10:44:42.694Z,11.40
2023-02-28T10:46:47.643Z,10.20
2023-02-28T10:49:02.466Z,10.13
2023-02-28T10:51:07.806Z,10.32
2023-02-28T10:53:36.178Z,10.00
2023-02-28T10:55:44.844Z,15.35
2023-02-28T10:57:49.134Z,9.75
2023-02-28T10:59:53.400Z,10.27
2023-02-28T11:01:58.054Z,9.13
2023-02-28T11:04:01.219Z,9.80
2023-02-28T11:06:09.850Z,9.13
2023-02-28T11:08:16.060Z,9.77
2023-02-28T11:10:22.888Z,10.25
2023-02-28T11:12:29.189Z,9.40
2023-02-28T11:14:35.181Z,9.38
2023-02-28T11:16:39.628Z,8.13
2023-02-28T11:18:49.586Z,8.90
2023-02-28T11:20:55.465Z,8.63
2023-02-28T11:22:59.659Z,8.13
2023-02-28T11:25:04.515Z,13.05
2023-02-28T11:27:08.357Z,11.73
2023-02-28T11:29:15.279Z,9.40
2023-02-28T11:31:23.266Z,10.55
2023-02-28T11:33:30.485Z,9.32
2023-02-28T11:35:40.329Z,9.88
2023-02-28T11:37:43.233Z,12.55
2023-02-28T11:39:47.022Z,21.80
2023-02-28T11:42:04.163Z,10.85
2023-02-28T11:44:25.059Z,9.65
2023-02-28T11:46:35.811Z,8.82
2023-02-28T11:48:48.538Z,9.57
2023-02-28T11:51:04.192Z,10.75
2023-02-28T11:53:16.585Z,9.88
2023-02-28T11:55:23.354Z,8.82
2023-02-28T11:57:38.108Z,10.02
2023-02-28T11:59:56.204Z,12.27
2023-02-28T12:02:18.284Z,16.75
2023-02-28T12:04:29.287Z,11.38
2023-02-28T12:06:41.237Z,11.30
2023-02-28T12:08:52.319Z,13.30
2023-02-28T12:11:06.619Z,10.15
2023-02-28T12:13:20.784Z,12.10
2023-02-28T12:15:37.886Z,11.70
2023-02-28T12:17:53.239Z,9.55
2023-02-28T12:20:09.942Z,11.95
2023-02-28T12:22:32.046Z,14.68
2023-02-28T12:25:06.351Z,9.70
2023-02-28T12:27:13.964Z,8.95
2023-02-28T12:29:22.632Z,13.45
2023-02-28T12:31:31.332Z,54.95
2023-02-28T12:33:37.557Z,16.65
2023-02-28T12:35:48.289Z,36.03
2023-02-28T12:37:59.713Z,12.98
2023-02-28T12:40:07.380Z,9.45
2023-02-28T12:42:15.268Z,9.25
2023-02-28T12:44:22.473Z,9.88
2023-02-28T12:46:30.093Z,8.73
2023-02-28T12:48:39.478Z,8.55
2023-02-28T12:50:42.617Z,11.30
2023-02-28T12:52:55.467Z,10.05
2023-02-28T12:55:05.751Z,10.70
2023-02-28T12:57:14.988Z,10.57
2023-02-28T12:59:26.718Z,13.48
2023-02-28T13:01:48.778Z,13.15
2023-02-28T13:04:21.308Z,8.52
2023-02-28T13:06:47.480Z,10.73
2023-02-28T13:09:06.975Z,8.65
2023-02-28T13:11:26.247Z,8.80
2023-02-28T13:13:31.490Z,8.93
2023-02-28T13:15:39.075Z,10.45
2023-02-28T13:17:43.193Z,8.60
2023-02-28T13:19:49.597Z,15.98
2023-02-28T13:21:53.501Z,16.60
2023-02-28T13:24:02.464Z,8.75
2023-02-28T13:26:05.593Z,10.15
2023-02-28T13:28:13.778Z,8.85
2023-02-28T13:30:54.013Z,8.50
2023-02-28T13:33:25.615Z,8.50
2023-02-28T13:35:39.994Z,9.13
2023-02-28T13:37:45.640Z,9.77
2023-02-28T13:39:50.749Z,8.63
2023-02-28T13:41:53.510Z,8.38
2023-02-28T13:44:06.961Z,8.98
2023-02-28T13:46:14.036Z,8.45
2023-02-28T13:48:20.007Z,8.63
2023-02-28T13:50:29.212Z,8.55
2023-02-28T13:52:32.065Z,11.15
2023-02-28T13:54:47.320Z,10.95
2023-02-28T13:56:59.769Z,9.52
2023-02-28T13:59:14.728Z,8.68
2023-02-28T14:01:29.817Z,11.63
2023-02-28T14:03:47.109Z,9.57
2023-02-28T14:06:10.977Z,9.48
2023-02-28T14:08:18.830Z,8.68
2023-02-28T14:10:31.136Z,9.43
2023-02-28T14:12:55.500Z,8.98
2023-02-28T14:14:59.561Z,11.18
2023-02-28T14:17:04.840Z,8.65
2023-02-28T14:19:15.023Z,11.65
2023-02-28T14:21:26.615Z,11.55
2023-02-28T14:23:41.675Z,13.80
2023-02-28T14:25:55.496Z,10.27
2023-02-28T14:28:11.902Z,9.77
2023-02-28T14:30:44.301Z,8.88
2023-02-28T14:32:53.334Z,9.88
2023-02-28T14:35:05.304Z,8.40
2023-02-28T14:37:15.502Z,9.07
2023-02-28T14:39:23.407Z,11.77
2023-02-28T14:41:36.202Z,8.25
2023-02-28T14:43:39.752Z,12.50
2023-02-28T14:45:43.968Z,11.57
2023-02-28T14:47:46.838Z,10.65
2023-02-28T14:49:49.911Z,9.48
2023-02-28T14:52:05.400Z,18.67
2023-02-28T14:54:08.468Z,13.00
2023-02-28T14:56:22.836Z,12.23
2023-02-28T14:58:27.520Z,9.70
2023-02-28T15:00:32.492Z,8.27
2023-02-28T15:02:37.640Z,13.85
2023-02-28T15:04:42.833Z,9.23
2023-02-28T15:06:45.535Z,11.45
2023-02-28T15:08:48.294Z,8.20
2023-02-28T15:10:56.679Z,27.65
2023-02-28T15:13:02.242Z,11.70
2023-02-28T15:15:05.898Z,10.43
2023-02-28T15:17:17.382Z,10.73
2023-02-28T15:19:26.319Z,15.35
2023-02-28T15:21:32.896Z,9.80
2023-02-28T15:23:38.291Z,9.30
2023-02-28T15:25:42.816Z,10.45
2023-02-28T15:27:51.158Z,9.68
2023-02-28T15:29:58.776Z,10.20
2023-02-28T15:32:03.919Z,10.15
2023-02-28T15:34:08.562Z,11.13
2023-02-28T15:36:18.507Z,8.57
2023-02-28T15:38:27.457Z,15.15
2023-02-28T15:40:32.816Z,11.00
2023-02-28T15:42:35.595Z,9.50
2023-02-28T15:44:47.504Z,10.23
2023-02-28T15:46:58.956Z,13.73
2023-02-28T15:49:01.774Z,9.02
2023-02-28T15:51:09.457Z,9.88
2023-02-28T15:53:18.150Z,11.02
2023-02-28T15:55:23.924Z,11.98
2023-02-28T15:57:29.879Z,17.83
2023-02-28T15:59:33.466Z,11.75
2023-02-28T16:01:40.392Z,10.93
2023-02-28T16:03:47.099Z,9.13
2023-02-28T16:06:23.813Z,11.00
2023-02-28T16:08:26.623Z,9.15
2023-02-28T16:10:31.767Z,9.15
2023-02-28T16:12:38.043Z,9.90
2023-02-28T16:14:41.277Z,11.10
2023-02-28T16:16:47.048Z,10.82
2023-02-28T16:18:50.351Z,11.73
2023-02-28T16:20:53.078Z,11.48
2023-02-28T16:22:56.509Z,31.48
2023-02-28T16:24:59.258Z,15.65
2023-02-28T16:27:02.371Z,10.52
2023-02-28T16:29:05.852Z,9.98
2023-02-28T16:31:09.432Z,23.42
2023-02-28T16:33:13.520Z,17.58
2023-02-28T16:35:16.486Z,11.63
2023-02-28T16:37:20.731Z,16.77
2023-02-28T16:39:23.924Z,9.50
2023-02-28T16:41:30.032Z,16.00
2023-02-28T16:43:33.338Z,8.50
2023-02-28T16:45:36.393Z,13.73
2023-02-28T16:47:39.382Z,9.32
2023-02-28T16:49:44.149Z,11.32
2023-02-28T16:51:46.873Z,9.38
2023-02-28T16:53:49.802Z,13.95
2023-02-28T16:55:52.802Z,12.27
2023-02-28T16:57:57.222Z,13.10
2023-02-28T16:59:59.931Z,14.13
2023-02-28T17:02:02.727Z,16.20
2023-02-28T17:04:05.761Z,10.60
2023-02-28T17:06:19.829Z,9.98
2023-02-28T17:08:22.595Z,11.77
2023-02-28T17:10:27.363Z,12.32
2023-02-28T17:12:30.141Z,14.82
2023-02-28T17:14:33.335Z,10.93
2023-02-28T17:16:40.811Z,15.68
2023-02-28T17:18:43.930Z,13.52
2023-02-28T17:20:46.838Z,13.65
2023-02-28T17:22:51.282Z,10.20
2023-02-28T17:24:56.448Z,11.38
2023-02-28T17:26:59.353Z,10.00
2023-02-28T17:29:02.306Z,11.40
2023-02-28T17:31:05.164Z,13.35
2023-02-28T17:33:07.917Z,11.40
2023-02-28T17:35:11.613Z,9.88
2023-02-28T17:37:14.686Z,12.05
2023-02-28T17:39:24.937Z,12.98
2023-02-28T17:41:28.240Z,16.45
2023-02-28T17:43:31.006Z,17.75
2023-02-28T17:45:35.685Z,16.48
2023-02-28T17:47:38.532Z,16.10
2023-02-28T17:49:41.284Z,18.20
2023-02-28T17:51:44.047Z,12.27
2023-02-28T17:53:46.987Z,13.57
2023-02-28T17:55:51.155Z,25.27
2023-02-28T17:57:53.934Z,19.23
2023-02-28T17:59:56.619Z,11.73
2023-02-28T18:01:59.383Z,11.27
2023-02-28T18:04:02.120Z,12.63
2023-02-28T18:06:05.389Z,12.48
2023-02-28T18:08:10.316Z,11.32
2023-02-28T18:10:16.924Z,13.32
2023-02-28T18:12:21.351Z,11.60
2023-02-28T18:14:26.303Z,13.13
2023-02-28T18:16:30.248Z,10.90
2023-02-28T18:18:33.166Z,11.70
2023-02-28T18:20:36.117Z,12.52
2023-02-28T18:22:39.865Z,13.20
2023-02-28T18:24:42.548Z,12.35
2023-02-28T18:26:45.565Z,14.77
2023-02-28T18:28:49.705Z,18.25
2023-02-28T18:30:52.462Z,15.85
2023-02-28T18:32:55.222Z,14.80
2023-02-28T18:34:57.987Z,15.73
2023-02-28T18:37:00.817Z,13.00
2023-02-28T18:39:03.621Z,14.65
2023-02-28T18:41:07.475Z,12.60
2023-02-28T18:43:10.801Z,11.48
2023-02-28T18:45:15.024Z,15.73
2023-02-28T18:47:17.784Z,16.88
2023-02-28T18:49:20.653Z,13.57
2023-02-28T18:51:26.036Z,12.93
2023-02-28T18:53:28.776Z,13.50
2023-02-28T18:55:32.765Z,15.93
2023-02-28T18:57:35.544Z,15.80
2023-02-28T18:59:38.333Z,19.08
2023-02-28T19:01:42.446Z,13.18
2023-02-28T19:03:46.080Z,13.52
2023-02-28T19:05:50.181Z,15.95
2023-02-28T19:07:53.744Z,16.88
2023-02-28T19:09:56.497Z,12.93
2023-02-28T19:11:59.219Z,12.63
2023-02-28T19:14:02.624Z,16.50
2023-02-28T19:16:07.239Z,11.73
2023-02-28T19:18:11.442Z,13.80
2023-02-28T19:20:14.660Z,13.50
2023-02-28T19:22:17.450Z,12.52
2023-02-28T19:24:20.503Z,14.13
2023-02-28T19:26:25.784Z,12.82
2023-02-28T19:28:30.565Z,13.10
2023-02-28T19:30:33.373Z,13.55
2023-02-28T19:32:36.442Z,14.07
2023-02-28T19:34:40.690Z,12.23
2023-02-28T19:36:43.474Z,12.25
2023-02-28T19:38:46.402Z,14.50
2023-02-28T19:40:49.212Z,13.75
2023-02-28T19:42:51.935Z,15.75
2023-02-28T19:44:54.679Z,14.52
2023-02-28T19:46:57.406Z,13.60
2023-02-28T19:49:00.175Z,16.70
2023-02-28T19:51:06.255Z,15.18
2023-02-28T19:53:09.145Z,15.93
2023-02-28T19:55:12.146Z,16.52
2023-02-28T19:57:14.917Z,19.23
2023-02-28T19:59:21.971Z,16.58
2023-02-28T20:01:33.709Z,16.20
2023-02-28T20:03:36.577Z,16.48
2023-02-28T20:05:39.409Z,16.88
2023-02-28T20:07:43.697Z,14.45
2023-02-28T20:09:46.712Z,20.80
2023-02-28T20:11:50.538Z,16.33
2023-02-28T20:13:54.310Z,15.88
2023-02-28T20:16:00.284Z,16.45
2023-02-28T20:18:03.141Z,16.23
2023-02-28T20:20:08.954Z,14.43
2023-02-28T20:22:12.219Z,16.90
2023-02-28T20:24:16.471Z,15.65
2023-02-28T20:26:20.185Z,14.00
2023-02-28T20:28:22.941Z,15.70
2023-02-28T20:30:25.913Z,15.95
2023-02-28T20:32:28.885Z,15.55
2023-02-28T20:34:31.648Z,14.57
2023-02-28T20:36:34.472Z,15.13
2023-02-28T20:38:37.592Z,15.10
2023-02-28T20:40:41.749Z,15.00
2023-02-28T20:42:44.569Z,15.30
2023-02-28T20:44:47.324Z,13.32
2023-02-28T20:46:50.074Z,12.52
2023-02-28T20:48:52.908Z,15.65
2023-02-28T20:50:57.581Z,16.40
2023-02-28T20:53:00.343Z,15.55
2023-02-28T20:55:03.113Z,15.98
2023-02-28T20:57:07.189Z,14.25
2023-02-28T20:59:11.954Z,17.27
2023-02-28T21:01:17.155Z,15.65
2023-02-28T21:03:20.037Z,13.43
2023-02-28T21:05:22.958Z,15.05
2023-02-28T21:07:26.335Z,17.60
2023-02-28T21:09:29.081Z,14.52
2023-02-28T21:11:35.013Z,12.27
2023-02-28T21:13:39.570Z,15.82
2023-02-28T21:15:42.389Z,15.98
2023-02-28T21:17:48.014Z,17.63
2023-02-28T21:19:50.800Z,18.30
2023-02-28T21:21:56.212Z,14.88
2023-02-28T21:23:59.062Z,14.10
2023-02-28T21:26:05.807Z,15.10
2023-02-28T21:28:08.522Z,16.00
2023-02-28T21:30:13.256Z,17.45
2023-02-28T21:32:16.158Z,16.92
2023-02-28T21:34:19.197Z,15.98
2023-02-28T21:36:24.614Z,21.02
2023-02-28T21:38:27.385Z,15.02
2023-02-28T21:40:30.117Z,16.52
2023-02-28T21:42:33.110Z,15.13
2023-02-28T21:44:35.859Z,18.23
2023-02-28T21:46:40.121Z,22.92
2023-02-28T21:48:43.304Z,19.20
2023-02-28T21:50:56.534Z,17.80
2023-02-28T21:52:59.303Z,18.73
2023-02-28T21:55:02.066Z,16.83
2023-02-28T21:57:05.410Z,17.42
2023-02-28T21:59:09.696Z,21.00
2023-02-28T22:01:14.202Z,19.40
2023-02-28T22:03:18.274Z,28.17
2023-02-28T22:05:21.327Z,18.17
2023-02-28T22:07:24.086Z,19.15
2023-02-28T22:09:27.983Z,17.85
2023-02-28T22:11:30.757Z,17.95
2023-02-28T22:13:33.473Z,18.95
2023-02-28T22:15:37.210Z,18.05
2023-02-28T22:17:40.063Z,17.50
2023-02-28T22:19:44.527Z,18.50
2023-02-28T22:21:47.591Z,16.25
2023-02-28T22:23:50.986Z,16.10
2023-02-28T22:25:54.703Z,16.90
2023-02-28T22:27:57.416Z,16.90
2023-02-28T22:30:00.219Z,15.40
2023-02-28T22:32:03.016Z,14.60
2023-02-28T22:34:08.679Z,15.20
2023-02-28T22:36:14.762Z,19.65
2023-02-28T22:38:17.604Z,16.25
2023-02-28T22:40:20.597Z,17.23
2023-02-28T22:42:23.411Z,17.60
2023-02-28T22:44:26.183Z,17.65
2023-02-28T22:46:31.144Z,16.08
2023-02-28T22:48:34.884Z,14.95
2023-02-28T22:50:37.720Z,16.02
2023-02-28T22:52:42.457Z,19.50
2023-02-28T22:54:45.225Z,15.38
2023-02-28T22:56:48.043Z,15.30
2023-02-28T22:58:51.391Z,15.77
2023-02-28T23:00:55.684Z,15.80
2023-02-28T23:02:58.451Z,15.35
2023-02-28T23:05:01.229Z,17.92
2023-02-28T23:07:04.666Z,17.00
2023-02-28T23:09:12.104Z,17.63
2023-02-28T23:11:20.008Z,16.10
2023-02-28T23:13:23.059Z,15.90
2023-02-28T23:15:25.833Z,18.35
2023-02-28T23:17:28.608Z,16.92
2023-02-28T23:19:32.314Z,17.83
2023-02-28T23:21:35.567Z,19.27
2023-02-28T23:23:38.319Z,17.95
2023-02-28T23:25:43.487Z,17.85
2023-02-28T23:27:46.255Z,17.27
2023-02-28T23:29:49.026Z,17.50
2023-02-28T23:31:52.634Z,16.63
2023-02-28T23:33:56.815Z,16.02
2023-02-28T23:36:03.969Z,15.80
2023-02-28T23:38:06.721Z,16.40
2023-02-28T23:40:13.038Z,15.70
2023-02-28T23:42:17.176Z,15.77
2023-02-28T23:44:20.161Z,16.27
2023-02-28T23:46:23.353Z,16.63
2023-02-28T23:48:26.158Z,16.55
2023-02-28T23:50:28.863Z,17.67
2023-02-28T23:52:31.977Z,18.25
2023-02-28T23:54:35.419Z,15.48
2023-02-28T23:56:38.242Z,17.10
2023-02-28T23:58:42.749Z,15.38
